Time;durP1;ratioP1;P1;durP2;ratioP2;P2;SDS_P1;SDS_P2;PMS_P1;PMS_P2;Temp;Humidity;BMP_temperature;BMP_pressure;BME280_temperature;BME280_humidity;BME280_pressure;Samples;Min_cycle;Max_cycle;Signal;HPM_P1;HPM_P2
2024/03/19 00:00:14;;;;;;;12.63;11.43;;;8.80;99.90;;;;;;4986135;28;20716;-69
2024/03/19 00:02:39;;;;;;;11.37;10.27;;;8.80;99.90;;;;;;4989408;28;20427;-68
2024/03/19 00:05:06;;;;;;;10.43;9.43;;;8.80;99.90;;;;;;4989401;28;20469;-68
2024/03/19 00:07:31;;;;;;;11.60;10.13;;;8.80;99.90;;;;;;4985064;28;20195;-69
2024/03/19 00:09:57;;;;;;;10.77;9.67;;;8.80;99.90;;;;;;4970342;28;20571;-69
2024/03/19 00:12:24;;;;;;;14.90;11.40;;;8.70;99.90;;;;;;4973300;28;20176;-68
2024/03/19 00:14:50;;;;;;;14.47;11.63;;;8.70;99.90;;;;;;4973549;28;20175;-68
2024/03/19 00:17:16;;;;;;;12.73;11.50;;;8.70;99.90;;;;;;4977329;28;20530;-69
2024/03/19 00:19:42;;;;;;;10.20;9.20;;;8.60;99.90;;;;;;4968536;28;20462;-68
2024/03/19 00:22:08;;;;;;;12.07;9.27;;;8.50;99.90;;;;;;4964564;28;20180;-68
2024/03/19 00:24:33;;;;;;;9.87;8.83;;;8.50;99.90;;;;;;4973045;28;20210;-69
2024/03/19 00:26:59;;;;;;;11.40;10.23;;;8.50;99.90;;;;;;4971869;28;20450;-68
2024/03/19 00:29:26;;;;;;;10.53;9.57;;;8.40;99.90;;;;;;4968118;28;20177;-69
2024/03/19 00:31:51;;;;;;;11.53;10.43;;;8.40;99.90;;;;;;4970168;28;20447;-68
2024/03/19 00:34:17;;;;;;;14.23;11.63;;;8.40;99.90;;;;;;4974100;28;20435;-68
2024/03/19 00:36:43;;;;;;;13.07;9.70;;;8.40;99.90;;;;;;4979038;28;20247;-68
2024/03/19 00:39:10;;;;;;;15.07;9.00;;;8.40;99.90;;;;;;4984573;28;20235;-68
2024/03/19 00:41:36;;;;;;;9.97;8.57;;;8.50;99.90;;;;;;4977875;28;20467;-68
2024/03/19 00:44:04;;;;;;;8.67;7.60;;;8.60;99.90;;;;;;4982380;28;20590;-68
2024/03/19 00:46:30;;;;;;;8.00;7.20;;;8.60;99.90;;;;;;4986227;28;20435;-68
2024/03/19 00:48:55;;;;;;;10.23;9.17;;;8.60;99.90;;;;;;4986570;28;20462;-69
2024/03/19 00:51:21;;;;;;;7.87;6.97;;;8.70;99.90;;;;;;4975733;28;20448;-68
2024/03/19 00:53:46;;;;;;;9.57;8.43;;;8.60;99.90;;;;;;4973792;28;20610;-68
2024/03/19 00:56:12;;;;;;;9.43;8.53;;;8.60;99.90;;;;;;4975863;28;20591;-68
2024/03/19 00:58:37;;;;;;;9.80;7.03;;;8.60;99.90;;;;;;4978326;28;20207;-68
2024/03/19 01:01:03;;;;;;;8.60;7.40;;;8.60;99.90;;;;;;4975636;28;20267;-68
2024/03/19 01:03:29;;;;;;;10.93;7.50;;;8.70;99.90;;;;;;4967328;28;20205;-68
2024/03/19 01:05:54;;;;;;;11.80;8.33;;;8.70;99.90;;;;;;4975798;28;20261;-68
2024/03/19 01:08:20;;;;;;;9.20;7.37;;;8.70;99.90;;;;;;4983400;28;20613;-68
2024/03/19 01:10:46;;;;;;;7.77;6.97;;;8.70;99.90;;;;;;4984608;28;20194;-68
2024/03/19 01:13:11;;;;;;;8.33;7.00;;;8.80;99.90;;;;;;4969056;28;20193;-68
2024/03/19 01:15:37;;;;;;;7.87;7.17;;;8.80;99.90;;;;;;4974854;28;20607;-68
2024/03/19 01:18:04;;;;;;;7.93;7.23;;;8.80;99.90;;;;;;4966331;28;20212;-68
2024/03/19 01:20:31;;;;;;;7.67;6.87;;;8.80;99.90;;;;;;4973317;28;20176;-68
2024/03/19 01:22:58;;;;;;;10.33;7.90;;;8.90;99.90;;;;;;4966655;28;20493;-68
2024/03/19 01:25:23;;;;;;;7.50;6.87;;;8.90;99.90;;;;;;4975112;28;20965;-68
2024/03/19 01:27:51;;;;;;;8.03;6.83;;;8.80;99.90;;;;;;4974752;28;20450;-68
2024/03/19 01:30:16;;;;;;;7.10;6.47;;;8.90;99.90;;;;;;4967481;28;20701;-68
2024/03/19 01:32:42;;;;;;;7.77;7.00;;;8.80;99.90;;;;;;4974153;28;20538;-68
2024/03/19 01:35:08;;;;;;;7.70;7.03;;;8.80;99.90;;;;;;4974967;28;20526;-68
2024/03/19 01:37:34;;;;;;;8.10;7.30;;;8.80;99.90;;;;;;4974772;28;20223;-68
2024/03/19 01:39:59;;;;;;;9.37;8.47;;;8.80;99.90;;;;;;4972713;28;20452;-68
2024/03/19 01:42:25;;;;;;;10.50;7.87;;;8.80;99.90;;;;;;4972808;28;20195;-68
2024/03/19 01:45:05;;;;;;;10.63;9.50;;;8.70;99.90;;;;;;4971602;28;20196;-68
2024/03/19 01:47:31;;;;;;;9.30;8.13;;;8.60;99.90;;;;;;4973579;28;20211;-68
2024/03/19 01:49:56;;;;;;;8.80;7.67;;;8.50;99.90;;;;;;4967238;28;20477;-68
2024/03/19 01:52:22;;;;;;;10.90;7.93;;;8.50;99.90;;;;;;4974673;28;20183;-68
2024/03/19 01:54:48;;;;;;;9.40;8.10;;;8.40;99.90;;;;;;4974239;28;20245;-68
2024/03/19 01:57:13;;;;;;;10.83;9.73;;;8.30;99.90;;;;;;4974055;28;20220;-68
2024/03/19 01:59:40;;;;;;;10.10;9.10;;;8.20;99.90;;;;;;4983819;28;20522;-68
2024/03/19 02:02:06;;;;;;;8.60;7.70;;;8.20;99.90;;;;;;4972413;28;20184;-68
2024/03/19 02:04:31;;;;;;;9.43;8.13;;;8.20;99.90;;;;;;4973978;28;20471;-68
2024/03/19 02:06:57;;;;;;;9.30;8.17;;;8.10;99.90;;;;;;4972230;28;20582;-68
2024/03/19 02:09:23;;;;;;;9.70;8.67;;;8.10;99.90;;;;;;4979891;28;20191;-69
2024/03/19 02:11:48;;;;;;;7.90;7.20;;;8.10;99.90;;;;;;4967100;28;20177;-68
2024/03/19 02:14:14;;;;;;;8.50;7.60;;;8.10;99.90;;;;;;4974534;28;20477;-68
2024/03/19 02:16:40;;;;;;;7.93;7.23;;;8.00;99.90;;;;;;4972697;28;20180;-68
2024/03/19 02:19:06;;;;;;;8.27;7.43;;;8.00;99.90;;;;;;4965947;28;20184;-69
2024/03/19 02:21:33;;;;;;;8.67;7.73;;;7.90;99.90;;;;;;4973067;28;20462;-68
2024/03/19 02:24:01;;;;;;;7.60;6.97;;;7.90;99.90;;;;;;4970327;28;20475;-68
2024/03/19 02:26:27;;;;;;;8.57;7.77;;;7.90;99.90;;;;;;4969967;28;20431;-68
2024/03/19 02:28:54;;;;;;;7.80;7.10;;;7.80;99.90;;;;;;4971184;28;20498;-68
2024/03/19 02:31:22;;;;;;;8.73;7.57;;;7.80;99.90;;;;;;4973925;28;20829;-68
2024/03/19 02:33:47;;;;;;;7.20;6.60;;;7.80;99.90;;;;;;4968104;28;20995;-68
2024/03/19 02:36:13;;;;;;;8.60;7.37;;;7.80;99.90;;;;;;4973086;28;20507;-68
2024/03/19 02:38:38;;;;;;;8.43;7.63;;;7.80;99.90;;;;;;4972606;28;20294;-68
2024/03/19 02:41:04;;;;;;;6.97;6.37;;;7.70;99.90;;;;;;4966550;28;20252;-68
2024/03/19 02:43:30;;;;;;;7.80;7.00;;;7.70;99.90;;;;;;4963028;28;20197;-69
2024/03/19 02:45:55;;;;;;;7.57;6.80;;;7.60;99.90;;;;;;4970494;28;20713;-68
2024/03/19 02:48:21;;;;;;;7.43;6.73;;;7.50;99.90;;;;;;4974085;28;20211;-68
2024/03/19 02:50:47;;;;;;;7.20;6.50;;;7.50;99.90;;;;;;4960533;28;20185;-68
2024/03/19 02:53:12;;;;;;;6.93;6.33;;;7.50;99.90;;;;;;4966797;28;20999;-68
2024/03/19 02:55:38;;;;;;;6.20;5.67;;;7.40;99.90;;;;;;4973429;28;20235;-68
2024/03/19 02:58:04;;;;;;;8.50;6.20;;;7.40;99.90;;;;;;4968355;28;20227;-68
2024/03/19 03:00:29;;;;;;;7.33;6.20;;;7.40;99.90;;;;;;4973413;28;20234;-68
2024/03/19 03:02:55;;;;;;;8.20;6.23;;;7.40;99.90;;;;;;4971379;28;20195;-68
2024/03/19 03:05:20;;;;;;;7.77;6.70;;;7.40;99.90;;;;;;4969890;28;20215;-68
2024/03/19 03:07:46;;;;;;;7.50;6.80;;;7.40;99.90;;;;;;4972429;28;20196;-68
2024/03/19 03:10:11;;;;;;;11.60;5.87;;;7.40;99.90;;;;;;4973078;28;20665;-68
2024/03/19 03:12:37;;;;;;;7.10;6.40;;;7.40;99.90;;;;;;4972819;28;20270;-68
2024/03/19 03:15:04;;;;;;;5.70;5.20;;;7.40;99.90;;;;;;4963652;28;20203;-68
2024/03/19 03:17:31;;;;;;;6.60;5.97;;;7.40;99.90;;;;;;4971657;28;20204;-68
2024/03/19 03:19:56;;;;;;;6.17;5.67;;;7.40;99.90;;;;;;4964172;28;20495;-68
2024/03/19 03:22:22;;;;;;;7.03;6.30;;;7.40;99.90;;;;;;4972658;28;20839;-68
2024/03/19 03:24:47;;;;;;;6.53;5.93;;;7.40;99.90;;;;;;4971290;28;20212;-68
2024/03/19 03:27:13;;;;;;;5.50;5.10;;;7.40;99.90;;;;;;4963847;28;20299;-68
2024/03/19 03:29:38;;;;;;;6.80;5.70;;;7.30;99.90;;;;;;4977340;28;20235;-68
2024/03/19 03:32:04;;;;;;;9.70;6.77;;;7.30;99.90;;;;;;4971532;28;20184;-69
2024/03/19 03:34:31;;;;;;;7.37;5.50;;;7.20;99.90;;;;;;4972703;28;20183;-68
2024/03/19 03:36:56;;;;;;;6.60;5.30;;;7.10;99.90;;;;;;4972649;28;20211;-68
2024/03/19 03:39:22;;;;;;;5.67;5.17;;;7.10;99.90;;;;;;4963863;28;20439;-68
2024/03/19 03:41:47;;;;;;;5.50;5.00;;;7.10;99.90;;;;;;4972750;28;20568;-68
2024/03/19 03:44:13;;;;;;;6.87;6.17;;;7.10;99.90;;;;;;4964874;28;20200;-68
2024/03/19 03:46:39;;;;;;;5.83;5.20;;;7.00;99.90;;;;;;4965497;28;20208;-68
2024/03/19 03:49:05;;;;;;;7.03;5.60;;;7.00;99.90;;;;;;4969703;28;20180;-68
2024/03/19 03:51:31;;;;;;;6.23;5.67;;;7.00;99.90;;;;;;4973013;28;20180;-68
2024/03/19 03:53:57;;;;;;;6.70;4.80;;;6.90;99.90;;;;;;4973023;28;20522;-68
2024/03/19 03:56:23;;;;;;;6.07;5.47;;;6.90;99.90;;;;;;4966540;28;20462;-68
2024/03/19 03:58:48;;;;;;;5.70;5.00;;;6.90;99.90;;;;;;4978789;28;20470;-68
2024/03/19 04:01:14;;;;;;;5.90;5.30;;;6.90;99.90;;;;;;4978616;28;20219;-68
2024/03/19 04:03:39;;;;;;;7.17;6.07;;;6.80;99.90;;;;;;4969982;28;20204;-68
2024/03/19 04:06:05;;;;;;;5.27;4.83;;;6.90;99.90;;;;;;4971357;28;20191;-68
2024/03/19 04:08:30;;;;;;;6.80;5.43;;;6.90;99.90;;;;;;4967556;28;20550;-68
2024/03/19 04:10:56;;;;;;;5.70;5.13;;;6.90;99.90;;;;;;4964114;28;20694;-68
2024/03/19 04:13:22;;;;;;;6.03;5.43;;;6.90;99.90;;;;;;4972385;28;20243;-68
2024/03/19 04:15:49;;;;;;;6.27;5.67;;;6.80;99.90;;;;;;4972755;28;20179;-68
2024/03/19 04:18:14;;;;;;;6.53;5.93;;;6.80;99.90;;;;;;4975721;28;20196;-68
2024/03/19 04:20:41;;;;;;;7.57;6.27;;;6.70;99.90;;;;;;4976006;28;20459;-68
2024/03/19 04:23:07;;;;;;;6.40;5.33;;;6.70;99.90;;;;;;4976945;28;20179;-68
2024/03/19 04:25:32;;;;;;;12.33;6.17;;;6.70;99.90;;;;;;4968569;28;20475;-68
2024/03/19 04:27:58;;;;;;;7.50;6.00;;;6.60;99.90;;;;;;4960361;28;20292;-68
2024/03/19 04:30:24;;;;;;;6.20;5.47;;;6.60;99.90;;;;;;4981970;28;20214;-68
2024/03/19 04:32:50;;;;;;;6.33;5.77;;;6.60;99.90;;;;;;4974664;28;20187;-68
2024/03/19 04:35:16;;;;;;;7.20;5.93;;;6.60;99.90;;;;;;4974627;28;20526;-69
2024/03/19 04:37:44;;;;;;;7.30;6.10;;;6.70;99.90;;;;;;4972956;28;20545;-68
2024/03/19 04:40:11;;;;;;;5.57;5.07;;;6.70;99.90;;;;;;4975332;28;20184;-68
2024/03/19 04:42:38;;;;;;;6.53;5.27;;;6.60;99.90;;;;;;4975954;28;20871;-68
2024/03/19 04:45:06;;;;;;;7.10;6.40;;;6.60;99.90;;;;;;4974721;28;21055;-68
2024/03/19 04:47:31;;;;;;;7.60;6.30;;;6.60;99.90;;;;;;4969444;28;20460;-67
2024/03/19 04:49:57;;;;;;;7.43;6.60;;;6.60;99.90;;;;;;4974752;28;20430;-68
2024/03/19 04:52:23;;;;;;;6.80;5.50;;;6.50;99.90;;;;;;4972651;28;20700;-68
2024/03/19 04:54:49;;;;;;;9.10;5.83;;;6.50;99.90;;;;;;4975400;28;20176;-68
2024/03/19 04:57:14;;;;;;;8.13;5.30;;;6.50;99.90;;;;;;4967483;28;20239;-68
2024/03/19 04:59:40;;;;;;;6.50;5.90;;;6.40;99.90;;;;;;4974721;28;20478;-68
2024/03/19 05:02:06;;;;;;;6.30;5.70;;;6.40;99.90;;;;;;4974755;28;20188;-68
2024/03/19 05:04:32;;;;;;;6.63;5.20;;;6.30;99.90;;;;;;4975730;28;20730;-68
2024/03/19 05:06:57;;;;;;;6.30;5.70;;;6.30;99.90;;;;;;4964176;28;20254;-68
2024/03/19 05:09:23;;;;;;;6.27;5.63;;;6.30;99.90;;;;;;4972112;28;20506;-68
2024/03/19 05:11:48;;;;;;;12.60;5.80;;;6.20;99.90;;;;;;4973103;28;20324;-68
2024/03/19 05:14:14;;;;;;;7.90;6.00;;;6.20;99.90;;;;;;4975654;28;20203;-68
2024/03/19 05:16:41;;;;;;;9.40;6.30;;;6.20;99.90;;;;;;4973769;28;20238;-68
2024/03/19 05:19:06;;;;;;;6.50;5.50;;;6.20;99.90;;;;;;4975653;28;20442;-68
2024/03/19 05:21:32;;;;;;;6.70;5.90;;;6.30;99.90;;;;;;4976407;28;20420;-68
2024/03/19 05:23:57;;;;;;;6.77;6.07;;;6.30;99.90;;;;;;4988998;28;20200;-68
2024/03/19 05:26:23;;;;;;;5.93;5.37;;;6.20;99.90;;;;;;4969065;28;20222;-67
2024/03/19 05:28:48;;;;;;;9.00;6.50;;;6.20;99.90;;;;;;4972598;28;20776;-68
2024/03/19 05:31:22;;;;;;;5.10;4.70;;;6.20;99.90;;;;;;4966143;28;20176;-68
2024/03/19 05:33:51;;;;;;;7.30;6.03;;;6.20;99.90;;;;;;4974669;28;20184;-68
2024/03/19 05:36:17;;;;;;;6.20;5.67;;;6.20;99.90;;;;;;4974682;28;20506;-67
2024/03/19 05:38:43;;;;;;;9.63;7.63;;;6.20;99.90;;;;;;4974052;28;20540;-68
2024/03/19 05:41:10;;;;;;;8.90;6.80;;;6.20;99.90;;;;;;4975550;28;20447;-68
2024/03/19 05:43:35;;;;;;;7.87;7.07;;;6.30;99.90;;;;;;4975054;28;20232;-68
2024/03/19 05:46:01;;;;;;;8.97;6.60;;;6.30;99.90;;;;;;4966917;28;20439;-68
2024/03/19 05:48:26;;;;;;;14.60;7.50;;;6.30;99.90;;;;;;4966158;28;20212;-68
2024/03/19 05:50:52;;;;;;;9.57;8.60;;;6.30;99.90;;;;;;4972968;28;20204;-69
2024/03/19 05:53:17;;;;;;;7.37;6.63;;;6.40;99.90;;;;;;4966330;28;20183;-68
2024/03/19 05:55:43;;;;;;;8.23;6.10;;;6.40;99.90;;;;;;4979698;28;20187;-68
2024/03/19 05:58:08;;;;;;;8.20;5.90;;;6.40;99.90;;;;;;5017014;23;20273;-69
2024/03/19 06:00:34;;;;;;;8.60;7.73;;;6.40;99.90;;;;;;5010075;28;20212;-69
2024/03/19 06:03:00;;;;;;;12.00;7.47;;;6.50;99.90;;;;;;5027967;28;20308;-68
2024/03/19 06:05:26;;;;;;;11.30;8.70;;;6.60;99.90;;;;;;5023258;28;20206;-68
2024/03/19 06:07:51;;;;;;;8.77;7.87;;;6.80;99.90;;;;;;5020206;28;20441;-67
2024/03/19 06:10:17;;;;;;;10.13;8.97;;;7.00;99.90;;;;;;5023213;28;20175;-67
2024/03/19 06:12:43;;;;;;;11.63;9.80;;;7.20;99.90;;;;;;5024827;28;20944;-67
2024/03/19 06:15:09;;;;;;;10.50;7.17;;;7.30;99.90;;;;;;5022234;28;20328;-68
2024/03/19 06:17:35;;;;;;;12.17;8.00;;;7.40;99.90;;;;;;5021788;28;21025;-67
2024/03/19 06:20:03;;;;;;;9.77;8.57;;;7.60;99.90;;;;;;5022328;28;20670;-69
2024/03/19 06:22:29;;;;;;;8.60;7.70;;;7.70;99.90;;;;;;5013839;28;20266;-66
2024/03/19 06:24:54;;;;;;;7.80;7.10;;;7.90;99.90;;;;;;5013679;28;20540;-66
2024/03/19 06:27:20;;;;;;;8.10;7.30;;;8.10;99.90;;;;;;5012858;28;20195;-66
2024/03/19 06:29:46;;;;;;;7.10;6.53;;;8.20;99.90;;;;;;5013687;28;20167;-66
2024/03/19 06:32:13;;;;;;;8.57;7.80;;;8.40;99.90;;;;;;5013611;28;20171;-68
2024/03/19 06:34:39;;;;;;;8.30;7.60;;;8.50;99.90;;;;;;5012285;28;20177;-66
2024/03/19 06:37:04;;;;;;;8.83;8.03;;;8.60;99.90;;;;;;5012489;28;20990;-67
2024/03/19 06:39:30;;;;;;;8.07;6.43;;;8.80;99.90;;;;;;5013385;28;20175;-69
2024/03/19 06:41:56;;;;;;;10.30;7.23;;;8.90;99.90;;;;;;5013023;28;20186;-67
2024/03/19 06:44:21;;;;;;;7.40;6.67;;;9.00;99.90;;;;;;5013335;28;20226;-67
2024/03/19 06:46:47;;;;;;;7.13;6.53;;;9.10;99.90;;;;;;5012521;28;20615;-67
2024/03/19 06:49:13;;;;;;;7.43;6.73;;;9.20;99.90;;;;;;5013244;28;20245;-67
2024/03/19 06:51:39;;;;;;;9.20;8.33;;;9.30;99.90;;;;;;5013260;28;20246;-67
2024/03/19 06:54:05;;;;;;;8.40;6.90;;;9.40;99.90;;;;;;5013101;28;20497;-66
2024/03/19 06:56:31;;;;;;;8.00;7.30;;;9.50;99.90;;;;;;5012391;28;20201;-67
2024/03/19 06:58:56;;;;;;;9.13;7.40;;;9.60;99.90;;;;;;5012965;28;20461;-66
2024/03/19 07:01:22;;;;;;;6.93;6.33;;;9.90;99.90;;;;;;5013075;28;20171;-68
2024/03/19 07:03:47;;;;;;;7.27;6.63;;;9.90;99.90;;;;;;5013106;28;20194;-67
2024/03/19 07:06:13;;;;;;;7.93;7.23;;;10.10;99.90;;;;;;5012302;28;20236;-67
2024/03/19 07:08:41;;;;;;;8.27;7.53;;;10.30;99.90;;;;;;5012242;28;20190;-67
2024/03/19 07:11:09;;;;;;;7.87;7.10;;;10.60;99.90;;;;;;5012489;28;20426;-67
2024/03/19 07:13:35;;;;;;;8.57;7.77;;;10.80;99.90;;;;;;5006874;28;20433;-67
2024/03/19 07:16:00;;;;;;;7.97;7.20;;;11.00;99.90;;;;;;5012819;28;20429;-67
2024/03/19 07:18:26;;;;;;;8.27;7.40;;;11.20;99.90;;;;;;5012353;28;20213;-67
2024/03/19 07:20:55;;;;;;;8.20;6.60;;;11.40;99.90;;;;;;5011787;28;20201;-67
2024/03/19 07:23:21;;;;;;;11.57;6.63;;;11.50;99.90;;;;;;5012657;28;20205;-66
2024/03/19 07:25:46;;;;;;;7.80;7.00;;;11.70;99.90;;;;;;5012159;28;20465;-66
2024/03/19 07:28:12;;;;;;;9.27;7.00;;;12.00;99.90;;;;;;5005069;28;20627;-66
2024/03/19 07:30:37;;;;;;;8.43;7.63;;;12.50;99.90;;;;;;4992577;28;20171;-66
2024/03/19 07:33:04;;;;;;;7.50;6.90;;;12.60;99.90;;;;;;4993999;28;20227;-66
2024/03/19 07:35:29;;;;;;;7.07;6.47;;;12.70;99.90;;;;;;5006381;28;20603;-66
2024/03/19 07:37:55;;;;;;;8.20;7.50;;;12.70;99.90;;;;;;5011719;28;20492;-66
2024/03/19 07:40:20;;;;;;;7.67;7.17;;;12.80;99.90;;;;;;5012490;28;20183;-68
2024/03/19 07:42:49;;;;;;;7.20;6.60;;;12.90;99.90;;;;;;5012403;28;20197;-66
2024/03/19 07:45:15;;;;;;;6.80;6.20;;;12.80;99.90;;;;;;5012390;28;20596;-68
2024/03/19 07:47:41;;;;;;;8.23;6.80;;;12.80;99.90;;;;;;5011083;28;20503;-68
2024/03/19 07:50:07;;;;;;;6.77;6.17;;;12.70;99.90;;;;;;5001437;28;20429;-68
2024/03/19 07:52:37;;;;;;;6.77;5.73;;;12.70;99.90;;;;;;5011831;28;20179;-69
2024/03/19 07:55:06;;;;;;;7.63;6.93;;;13.00;99.90;;;;;;5012261;28;20806;-69
2024/03/19 07:57:31;;;;;;;8.00;7.30;;;12.90;99.90;;;;;;5011061;28;20477;-69
2024/03/19 08:00:05;;;;;;;9.27;6.93;;;13.10;99.90;;;;;;5010390;28;20442;-67
2024/03/19 08:02:31;;;;;;;7.00;6.10;;;13.20;99.90;;;;;;5012031;28;20651;-68
2024/03/19 08:04:56;;;;;;;5.70;5.30;;;13.20;99.90;;;;;;5011972;28;20504;-68
2024/03/19 08:07:22;;;;;;;6.97;6.37;;;13.40;99.90;;;;;;5010688;28;20690;-68
2024/03/19 08:09:48;;;;;;;7.33;6.67;;;13.70;99.90;;;;;;5011320;28;20183;-68
2024/03/19 08:12:15;;;;;;;6.57;6.00;;;14.10;99.90;;;;;;5010154;28;20252;-68
2024/03/19 08:14:41;;;;;;;6.23;5.73;;;14.40;99.90;;;;;;5011516;28;20250;-68
2024/03/19 08:17:07;;;;;;;6.20;5.80;;;14.60;99.90;;;;;;5011004;28;20580;-69
2024/03/19 08:19:33;;;;;;;8.00;7.30;;;14.90;99.90;;;;;;5011382;28;20574;-68
2024/03/19 08:21:58;;;;;;;7.03;6.37;;;14.70;99.90;;;;;;5011524;28;20437;-68
2024/03/19 08:24:24;;;;;;;6.63;6.03;;;15.10;99.90;;;;;;5011746;28;20198;-69
2024/03/19 08:26:50;;;;;;;6.33;5.83;;;15.30;99.90;;;;;;5009432;28;20171;-68
2024/03/19 08:29:16;;;;;;;5.97;5.40;;;15.30;99.90;;;;;;5011219;28;20262;-68
2024/03/19 08:31:42;;;;;;;6.40;5.90;;;15.60;99.90;;;;;;5011371;28;20506;-69
2024/03/19 08:34:08;;;;;;;6.70;6.10;;;15.80;99.90;;;;;;5011554;28;20233;-68
2024/03/19 08:36:33;;;;;;;6.70;5.90;;;15.90;99.90;;;;;;5011009;28;20616;-69
2024/03/19 08:38:59;;;;;;;6.50;5.90;;;15.70;99.90;;;;;;5011448;28;20187;-68
2024/03/19 08:41:24;;;;;;;6.67;6.07;;;16.10;99.90;;;;;;5011485;28;20722;-68
2024/03/19 08:43:51;;;;;;;6.80;6.20;;;16.80;99.90;;;;;;5010699;28;20833;-68
2024/03/19 08:46:20;;;;;;;6.43;5.93;;;17.40;99.90;;;;;;5011215;28;20171;-68
2024/03/19 08:48:48;;;;;;;7.33;6.67;;;17.50;99.90;;;;;;5010755;28;20464;-69
2024/03/19 08:51:14;;;;;;;7.23;6.63;;;17.60;99.90;;;;;;5011486;28;20429;-69
2024/03/19 08:53:40;;;;;;;6.40;5.80;;;17.80;99.90;;;;;;5010942;28;20810;-69
2024/03/19 08:56:06;;;;;;;6.00;5.50;;;18.00;99.90;;;;;;5011394;28;20428;-69
2024/03/19 08:58:32;;;;;;;5.70;5.30;;;17.90;99.90;;;;;;5009979;28;20206;-68
2024/03/19 09:00:57;;;;;;;6.00;5.50;;;18.30;99.90;;;;;;5011227;28;20471;-68
2024/03/19 09:03:23;;;;;;;9.00;6.00;;;18.00;99.90;;;;;;5012069;28;20175;-69
2024/03/19 09:05:58;;;;;;;6.07;5.67;;;17.90;99.90;;;;;;5014683;28;20300;-69
2024/03/19 09:08:24;;;;;;;5.87;5.47;;;17.70;99.90;;;;;;5013870;28;20187;-69
2024/03/19 09:10:54;;;;;;;6.37;5.87;;;17.80;99.90;;;;;;5015257;28;20424;-68
2024/03/19 09:13:23;;;;;;;5.80;5.40;;;18.40;99.90;;;;;;5014696;28;20426;-69
2024/03/19 09:15:48;;;;;;;4.97;4.57;;;18.60;99.90;;;;;;5014489;28;20424;-69
2024/03/19 09:18:15;;;;;;;6.73;5.90;;;18.50;99.90;;;;;;5013902;28;20442;-69
2024/03/19 09:20:41;;;;;;;6.13;5.63;;;18.00;99.90;;;;;;5014311;28;20175;-68
2024/03/19 09:23:07;;;;;;;5.60;5.10;;;18.00;99.90;;;;;;5014231;28;20926;-68
2024/03/19 09:25:33;;;;;;;7.80;6.73;;;17.80;99.90;;;;;;5014552;28;20457;-69
2024/03/19 09:27:59;;;;;;;5.00;4.60;;;17.50;99.90;;;;;;5013067;28;20226;-69
2024/03/19 09:30:26;;;;;;;6.27;5.27;;;17.50;99.90;;;;;;5014372;28;20229;-69
2024/03/19 09:32:52;;;;;;;5.83;5.40;;;17.60;99.90;;;;;;5014428;28;20476;-68
2024/03/19 09:35:18;;;;;;;6.60;6.07;;;17.40;99.90;;;;;;5013957;28;20509;-69
2024/03/19 09:37:44;;;;;;;6.07;4.83;;;17.20;99.90;;;;;;5013347;28;20516;-69
2024/03/19 09:40:10;;;;;;;5.93;5.43;;;17.10;99.90;;;;;;5014166;28;20176;-68
2024/03/19 09:42:36;;;;;;;5.33;5.03;;;17.10;99.90;;;;;;5013822;28;20246;-69
2024/03/19 09:45:04;;;;;;;5.17;4.67;;;17.10;99.90;;;;;;5012724;28;20461;-68
2024/03/19 09:47:31;;;;;;;4.77;4.20;;;17.10;99.90;;;;;;5013195;28;20442;-68
2024/03/19 09:49:59;;;;;;;4.80;4.40;;;17.40;99.90;;;;;;5013940;28;20421;-69
2024/03/19 09:52:25;;;;;;;4.60;4.20;;;17.60;99.90;;;;;;5013983;28;20410;-69
2024/03/19 09:54:50;;;;;;;5.63;5.13;;;17.70;99.90;;;;;;5013402;28;20430;-68
2024/03/19 09:57:21;;;;;;;6.07;5.67;;;17.60;99.90;;;;;;5012899;28;20233;-69
2024/03/19 09:59:50;;;;;;;4.70;4.40;;;18.70;99.90;;;;;;5013717;28;20241;-69
2024/03/19 10:02:18;;;;;;;4.13;3.83;;;19.70;99.90;;;;;;5013548;28;20500;-68
2024/03/19 10:04:47;;;;;;;4.87;4.47;;;19.60;99.90;;;;;;5013651;28;20465;-69
2024/03/19 10:07:18;;;;;;;4.77;4.37;;;20.10;99.90;;;;;;5012730;28;20457;-69
2024/03/19 10:09:45;;;;;;;5.60;5.10;;;20.30;99.90;;;;;;5013736;28;20918;-69
2024/03/19 10:12:11;;;;;;;4.83;4.43;;;20.20;99.90;;;;;;5013384;28;20454;-70
2024/03/19 10:14:36;;;;;;;4.57;4.27;;;20.30;99.90;;;;;;5012899;28;20450;-70
2024/03/19 10:17:02;;;;;;;5.30;3.77;;;21.40;99.90;;;;;;5012872;28;20246;-69
2024/03/19 10:19:28;;;;;;;3.80;3.40;;;21.80;99.40;;;;;;5013560;28;20221;-70
2024/03/19 10:21:53;;;;;;;4.37;4.03;;;22.40;97.30;;;;;;5013518;28;20209;-70
2024/03/19 10:24:19;;;;;;;3.20;3.00;;;23.50;91.80;;;;;;5013198;28;20213;-70
2024/03/19 10:26:46;;;;;;;3.87;3.10;;;25.00;81.40;;;;;;5012790;28;20171;-70
2024/03/19 10:29:14;;;;;;;3.67;3.27;;;26.20;66.50;;;;;;5013174;28;20285;-68
2024/03/19 10:31:44;;;;;;;5.53;5.00;;;26.60;58.40;;;;;;5013491;28;20436;-68
2024/03/19 10:34:20;;;;;;;3.53;3.27;;;27.20;55.70;;;;;;5013255;28;20426;-69
2024/03/19 10:36:48;;;;;;;3.17;2.97;;;28.30;51.90;;;;;;5012055;28;20512;-70
2024/03/19 10:39:15;;;;;;;3.50;3.30;;;29.80;47.40;;;;;;5013247;28;20504;-71
2024/03/19 10:41:42;;;;;;;3.37;3.07;;;29.60;42.20;;;;;;5013276;28;20425;-70
2024/03/19 10:44:14;;;;;;;5.00;4.60;;;29.80;41.40;;;;;;5013013;28;20492;-70
2024/03/19 10:46:41;;;;;;;2.80;2.60;;;29.90;39.70;;;;;;5012079;28;20973;-70
2024/03/19 10:49:06;;;;;;;2.60;2.40;;;28.90;40.50;;;;;;5013020;28;20808;-70
2024/03/19 10:51:33;;;;;;;2.20;2.07;;;27.10;40.90;;;;;;5013047;28;20416;-70
2024/03/19 10:54:00;;;;;;;2.63;2.43;;;26.60;41.10;;;;;;5012790;28;20214;-70
2024/03/19 10:56:29;;;;;;;2.73;2.53;;;25.50;44.50;;;;;;5012134;28;20496;-70
2024/03/19 10:58:56;;;;;;;1.97;1.87;;;25.70;45.10;;;;;;5012093;28;20519;-70
2024/03/19 11:01:21;;;;;;;5.50;5.03;;;25.20;44.20;;;;;;5011413;28;20958;-69
2024/03/19 11:03:53;;;;;;;3.40;2.93;;;26.30;45.20;;;;;;5012539;28;20503;-69
2024/03/19 11:06:22;;;;;;;4.40;4.00;;;26.70;43.50;;;;;;5012580;28;20181;-69
2024/03/19 11:08:55;;;;;;;4.03;3.83;;;28.10;41.70;;;;;;5012345;28;20438;-69
2024/03/19 11:11:28;;;;;;;4.00;3.00;;;28.80;39.70;;;;;;5012683;28;20789;-69
2024/03/19 11:14:00;;;;;;;6.50;5.90;;;28.00;41.50;;;;;;5012423;28;20493;-69
2024/03/19 11:16:25;;;;;;;5.30;4.10;;;28.60;40.50;;;;;;5011955;28;20437;-69
2024/03/19 11:18:51;;;;;;;6.07;4.77;;;28.40;40.40;;;;;;5012524;28;20441;-70
2024/03/19 11:21:20;;;;;;;9.50;5.40;;;29.20;39.70;;;;;;5012555;28;20214;-66
2024/03/19 11:23:46;;;;;;;6.40;5.67;;;27.80;39.50;;;;;;5011135;28;20632;-66
2024/03/19 11:26:15;;;;;;;3.60;3.17;;;29.30;41.50;;;;;;5010914;28;20425;-66
2024/03/19 11:28:41;;;;;;;4.80;4.40;;;31.10;37.80;;;;;;5011610;28;20528;-66
2024/03/19 11:31:06;;;;;;;3.70;3.40;;;32.10;35.10;;;;;;5010834;28;21014;-67
2024/03/19 11:33:33;;;;;;;3.70;3.40;;;31.30;34.90;;;;;;5012092;28;20175;-66
2024/03/19 11:35:59;;;;;;;5.37;4.30;;;31.80;35.40;;;;;;5012317;28;20624;-67
2024/03/19 11:38:25;;;;;;;5.93;3.53;;;31.40;34.00;;;;;;5011209;28;20444;-67
2024/03/19 11:40:51;;;;;;;3.50;3.20;;;30.90;34.00;;;;;;5011697;28;20171;-67
2024/03/19 11:43:18;;;;;;;4.03;3.73;;;30.00;35.00;;;;;;5011252;28;20508;-69
2024/03/19 11:45:47;;;;;;;3.70;3.50;;;28.40;35.30;;;;;;5011355;28;20214;-69
2024/03/19 11:48:15;;;;;;;4.40;4.00;;;26.10;38.60;;;;;;5010281;28;20935;-69
2024/03/19 11:50:56;;;;;;;6.80;3.93;;;24.70;42.50;;;;;;5012291;28;20433;-69
2024/03/19 11:53:25;;;;;;;4.30;3.97;;;23.40;47.80;;;;;;5012120;28;20425;-69
2024/03/19 11:55:52;;;;;;;4.33;4.00;;;22.60;51.30;;;;;;5012364;28;20426;-69
2024/03/19 11:58:18;;;;;;;4.20;3.80;;;21.90;55.60;;;;;;5012533;28;20468;-69
2024/03/19 12:00:44;;;;;;;4.57;4.27;;;21.20;62.50;;;;;;5011723;28;20437;-69
2024/03/19 12:03:13;;;;;;;4.70;4.40;;;20.20;71.40;;;;;;5012810;28;20650;-69
2024/03/19 12:05:47;;;;;;;3.73;3.43;;;19.60;83.90;;;;;;5011202;28;20257;-69
2024/03/19 12:08:14;;;;;;;3.70;3.30;;;19.00;90.10;;;;;;5010437;28;20971;-69
2024/03/19 12:10:42;;;;;;;6.53;3.37;;;18.70;92.60;;;;;;5012255;28;20430;-70
2024/03/19 12:13:11;;;;;;;4.40;4.00;;;18.60;93.00;;;;;;5012209;28;20429;-69
2024/03/19 12:15:37;;;;;;;3.40;3.20;;;18.50;94.40;;;;;;5012238;28;20487;-68
2024/03/19 12:18:06;;;;;;;3.93;3.50;;;18.40;96.10;;;;;;5010367;28;20453;-68
2024/03/19 12:20:33;;;;;;;4.27;3.90;;;18.20;96.50;;;;;;5012216;28;20429;-69
2024/03/19 12:22:59;;;;;;;3.63;3.37;;;18.00;98.00;;;;;;5012323;28;20422;-69
2024/03/19 12:25:26;;;;;;;4.73;4.37;;;18.10;99.10;;;;;;5012314;28;21178;-69
2024/03/19 12:27:52;;;;;;;3.90;3.60;;;18.30;97.60;;;;;;5011727;28;20201;-68
2024/03/19 12:30:20;;;;;;;3.93;3.63;;;18.50;97.70;;;;;;5011712;28;20508;-69
2024/03/19 12:33:12;;;;;;;3.80;3.50;;;18.70;96.60;;;;;;5012202;28;20171;-70
2024/03/19 12:35:39;;;;;;;4.20;3.90;;;18.90;95.40;;;;;;5014749;28;20425;-70
2024/03/19 12:38:11;;;;;;;5.20;4.17;;;18.80;96.50;;;;;;5016655;28;20445;-69
2024/03/19 12:40:36;;;;;;;5.10;4.60;;;20.00;92.30;;;;;;5018115;28;20434;-69
2024/03/19 12:43:03;;;;;;;3.60;3.30;;;21.70;78.40;;;;;;5015892;28;20901;-68
2024/03/19 12:45:28;;;;;;;4.80;4.40;;;22.40;72.90;;;;;;5015874;28;20194;-69